sensor_id;sensor_type;location;lat;lon;timestamp;temperature;humidity
44695;DHT22;32845;59.422;17.930;2024-03-02T00:03:23;4.20;99.90
44695;DHT22;32845;59.422;17.930;2024-03-02T00:07:56;4.20;99.90
44695;DHT22;32845;59.422;17.930;2024-03-02T00:12:27;4.20;99.90
44695;DHT22;32845;59.422;17.930;2024-03-02T00:16:59;4.30;99.90
44695;DHT22;32845;59.422;17.930;2024-03-02T00:21:31;4.30;99.90
44695;DHT22;32845;59.422;17.930;2024-03-02T00:26:01;4.30;99.90
44695;DHT22;32845;59.422;17.930;2024-03-02T00:35:22;4.40;99.90
44695;DHT22;32845;59.422;17.930;2024-03-02T00:39:53;4.40;99.90
44695;DHT22;32845;59.422;17.930;2024-03-02T00:44:25;4.40;99.90
44695;DHT22;32845;59.422;17.930;2024-03-02T00:49:10;4.30;99.90
44695;DHT22;32845;59.422;17.930;2024-03-02T00:53:42;4.30;99.90
44695;DHT22;32845;59.422;17.930;2024-03-02T00:58:13;4.30;99.90
44695;DHT22;32845;59.422;17.930;2024-03-02T01:02:43;4.30;99.90
44695;DHT22;32845;59.422;17.930;2024-03-02T01:07:15;4.20;99.90
44695;DHT22;32845;59.422;17.930;2024-03-02T01:11:46;4.10;99.90
44695;DHT22;32845;59.422;17.930;2024-03-02T01:16:17;4.10;99.90
44695;DHT22;32845;59.422;17.930;2024-03-02T01:20:48;4.00;99.90
44695;DHT22;32845;59.422;17.930;2024-03-02T01:25:18;4.00;99.90
44695;DHT22;32845;59.422;17.930;2024-03-02T01:29:49;3.90;99.90
44695;DHT22;32845;59.422;17.930;2024-03-02T01:34:20;3.90;99.90
44695;DHT22;32845;59.422;17.930;2024-03-02T01:38:51;3.80;99.90
44695;DHT22;32845;59.422;17.930;2024-03-02T01:43:26;3.80;99.90
44695;DHT22;32845;59.422;17.930;2024-03-02T01:47:57;3.70;99.90
44695;DHT22;32845;59.422;17.930;2024-03-02T01:52:28;3.70;99.90
44695;DHT22;32845;59.422;17.930;2024-03-02T01:57:03;3.70;99.90
44695;DHT22;32845;59.422;17.930;2024-03-02T02:01:34;3.70;99.90
44695;DHT22;32845;59.422;17.930;2024-03-02T02:06:10;3.70;99.90
44695;DHT22;32845;59.422;17.930;2024-03-02T02:10:40;3.70;99.90
44695;DHT22;32845;59.422;17.930;2024-03-02T02:15:28;3.70;99.90
44695;DHT22;32845;59.422;17.930;2024-03-02T02:19:58;3.60;99.90
44695;DHT22;32845;59.422;17.930;2024-03-02T02:24:29;3.60;99.90
44695;DHT22;32845;59.422;17.930;2024-03-02T02:28:59;3.60;99.90
44695;DHT22;32845;59.422;17.930;2024-03-02T02:33:30;3.50;99.90
44695;DHT22;32845;59.422;17.930;2024-03-02T02:38:01;3.50;99.90
44695;DHT22;32845;59.422;17.930;2024-03-02T02:42:32;3.50;99.90
44695;DHT22;32845;59.422;17.930;2024-03-02T02:47:03;3.50;99.90
44695;DHT22;32845;59.422;17.930;2024-03-02T02:51:33;3.50;99.90
44695;DHT22;32845;59.422;17.930;2024-03-02T02:56:04;3.40;99.90
44695;DHT22;32845;59.422;17.930;2024-03-02T03:00:34;3.40;99.90
44695;DHT22;32845;59.422;17.930;2024-03-02T03:05:07;3.40;99.90
44695;DHT22;32845;59.422;17.930;2024-03-02T03:09:38;3.40;99.90
44695;DHT22;32845;59.422;17.930;2024-03-02T03:14:12;3.30;99.90
44695;DHT22;32845;59.422;17.930;2024-03-02T03:18:43;3.30;99.90
44695;DHT22;32845;59.422;17.930;2024-03-02T03:23:13;3.20;99.90
44695;DHT22;32845;59.422;17.930;2024-03-02T03:27:47;3.10;99.90
44695;DHT22;32845;59.422;17.930;2024-03-02T03:32:18;3.10;99.90
44695;DHT22;32845;59.422;17.930;2024-03-02T03:36:48;3.10;99.90
44695;DHT22;32845;59.422;17.930;2024-03-02T03:41:19;3.10;99.90
44695;DHT22;32845;59.422;17.930;2024-03-02T03:45:49;3.10;99.90
44695;DHT22;32845;59.422;17.930;2024-03-02T03:50:20;3.10;99.90
44695;DHT22;32845;59.422;17.930;2024-03-02T03:54:51;3.00;99.90
44695;DHT22;32845;59.422;17.930;2024-03-02T03:59:22;3.00;99.90
44695;DHT22;32845;59.422;17.930;2024-03-02T04:03:52;3.00;99.90
44695;DHT22;32845;59.422;17.930;2024-03-02T04:08:23;3.00;99.90
44695;DHT22;32845;59.422;17.930;2024-03-02T04:12:53;3.00;99.90
44695;DHT22;32845;59.422;17.930;2024-03-02T04:17:24;3.00;99.90
44695;DHT22;32845;59.422;17.930;2024-03-02T04:21:54;3.00;99.90
44695;DHT22;32845;59.422;17.930;2024-03-02T04:26:26;3.00;99.90
44695;DHT22;32845;59.422;17.930;2024-03-02T04:30:56;2.90;99.90
44695;DHT22;32845;59.422;17.930;2024-03-02T04:35:27;2.90;99.90
44695;DHT22;32845;59.422;17.930;2024-03-02T04:39:57;2.90;99.90
44695;DHT22;32845;59.422;17.930;2024-03-02T04:44:28;2.90;99.90
44695;DHT22;32845;59.422;17.930;2024-03-02T04:48:59;2.90;99.90
44695;DHT22;32845;59.422;17.930;2024-03-02T04:53:29;2.90;99.90
44695;DHT22;32845;59.422;17.930;2024-03-02T04:58:00;2.90;99.90
44695;DHT22;32845;59.422;17.930;2024-03-02T05:02:30;2.90;99.90
44695;DHT22;32845;59.422;17.930;2024-03-02T05:07:12;2.90;99.90
44695;DHT22;32845;59.422;17.930;2024-03-02T05:11:42;2.90;99.90
44695;DHT22;32845;59.422;17.930;2024-03-02T05:16:32;2.90;99.90
44695;DHT22;32845;59.422;17.930;2024-03-02T05:21:03;3.00;99.90
44695;DHT22;32845;59.422;17.930;2024-03-02T05:25:34;2.90;99.90
44695;DHT22;32845;59.422;17.930;2024-03-02T05:30:06;2.90;99.90
44695;DHT22;32845;59.422;17.930;2024-03-02T05:34:36;2.80;99.90
44695;DHT22;32845;59.422;17.930;2024-03-02T05:39:07;2.80;99.90
44695;DHT22;32845;59.422;17.930;2024-03-02T05:43:39;2.80;99.90
44695;DHT22;32845;59.422;17.930;2024-03-02T05:48:10;2.80;99.90
44695;DHT22;32845;59.422;17.930;2024-03-02T05:52:40;2.80;99.90
44695;DHT22;32845;59.422;17.930;2024-03-02T05:57:16;2.80;99.90
44695;DHT22;32845;59.422;17.930;2024-03-02T06:01:48;2.90;99.90
44695;DHT22;32845;59.422;17.930;2024-03-02T06:06:21;2.90;99.90
44695;DHT22;32845;59.422;17.930;2024-03-02T06:10:52;2.90;99.90
44695;DHT22;32845;59.422;17.930;2024-03-02T06:15:22;2.90;99.90
44695;DHT22;32845;59.422;17.930;2024-03-02T06:19:54;3.00;99.90
44695;DHT22;32845;59.422;17.930;2024-03-02T06:24:29;3.00;99.90
44695;DHT22;32845;59.422;17.930;2024-03-02T06:29:00;3.10;99.90
44695;DHT22;32845;59.422;17.930;2024-03-02T06:33:32;3.10;99.90
44695;DHT22;32845;59.422;17.930;2024-03-02T06:38:03;3.20;99.90
44695;DHT22;32845;59.422;17.930;2024-03-02T06:42:34;3.20;99.90
44695;DHT22;32845;59.422;17.930;2024-03-02T06:47:05;3.30;99.90
44695;DHT22;32845;59.422;17.930;2024-03-02T06:51:35;3.40;99.90
44695;DHT22;32845;59.422;17.930;2024-03-02T06:56:07;3.40;99.90
44695;DHT22;32845;59.422;17.930;2024-03-02T07:00:38;3.50;99.90
44695;DHT22;32845;59.422;17.930;2024-03-02T07:05:09;3.50;99.90
44695;DHT22;32845;59.422;17.930;2024-03-02T07:09:40;3.60;99.90
44695;DHT22;32845;59.422;17.930;2024-03-02T07:14:10;3.70;99.90
44695;DHT22;32845;59.422;17.930;2024-03-02T07:18:41;3.70;99.90
44695;DHT22;32845;59.422;17.930;2024-03-02T07:23:15;3.80;99.90
44695;DHT22;32845;59.422;17.930;2024-03-02T07:27:46;3.90;99.90
44695;DHT22;32845;59.422;17.930;2024-03-02T07:32:16;3.90;99.90
44695;DHT22;32845;59.422;17.930;2024-03-02T07:36:47;4.00;99.90
44695;DHT22;32845;59.422;17.930;2024-03-02T07:41:18;4.00;99.90
44695;DHT22;32845;59.422;17.930;2024-03-02T07:45:48;4.10;99.90
44695;DHT22;32845;59.422;17.930;2024-03-02T07:50:19;4.20;99.90
44695;DHT22;32845;59.422;17.930;2024-03-02T07:54:50;4.30;99.90
44695;DHT22;32845;59.422;17.930;2024-03-02T07:59:21;4.30;99.90
44695;DHT22;32845;59.422;17.930;2024-03-02T08:03:52;4.30;99.90
44695;DHT22;32845;59.422;17.930;2024-03-02T08:08:23;4.40;99.90
44695;DHT22;32845;59.422;17.930;2024-03-02T08:12:53;4.40;99.90
44695;DHT22;32845;59.422;17.930;2024-03-02T08:17:24;4.50;99.90
44695;DHT22;32845;59.422;17.930;2024-03-02T08:21:54;4.50;99.90
44695;DHT22;32845;59.422;17.930;2024-03-02T08:26:30;4.50;99.90
44695;DHT22;32845;59.422;17.930;2024-03-02T08:31:02;4.60;99.90
44695;DHT22;32845;59.422;17.930;2024-03-02T08:35:37;4.60;99.90
44695;DHT22;32845;59.422;17.930;2024-03-02T08:40:08;4.60;99.90
44695;DHT22;32845;59.422;17.930;2024-03-02T08:44:39;4.60;99.90
44695;DHT22;32845;59.422;17.930;2024-03-02T08:49:10;4.70;99.90
44695;DHT22;32845;59.422;17.930;2024-03-02T08:53:41;4.70;99.90
44695;DHT22;32845;59.422;17.930;2024-03-02T08:58:12;4.70;99.90
44695;DHT22;32845;59.422;17.930;2024-03-02T09:02:44;4.70;99.90
44695;DHT22;32845;59.422;17.930;2024-03-02T09:07:15;4.70;99.90
44695;DHT22;32845;59.422;17.930;2024-03-02T09:11:46;4.70;99.90
44695;DHT22;32845;59.422;17.930;2024-03-02T09:16:17;4.80;99.90
44695;DHT22;32845;59.422;17.930;2024-03-02T09:20:47;4.80;99.90
44695;DHT22;32845;59.422;17.930;2024-03-02T09:25:23;4.80;99.90
44695;DHT22;32845;59.422;17.930;2024-03-02T09:29:54;4.90;99.90
44695;DHT22;32845;59.422;17.930;2024-03-02T09:34:24;4.90;99.90
44695;DHT22;32845;59.422;17.930;2024-03-02T09:38:55;5.00;99.90
44695;DHT22;32845;59.422;17.930;2024-03-02T09:43:26;5.00;99.90
44695;DHT22;32845;59.422;17.930;2024-03-02T09:47:57;5.10;99.90
44695;DHT22;32845;59.422;17.930;2024-03-02T09:52:27;5.30;99.90
44695;DHT22;32845;59.422;17.930;2024-03-02T09:56:58;5.40;99.90
44695;DHT22;32845;59.422;17.930;2024-03-02T10:01:29;5.50;99.90
44695;DHT22;32845;59.422;17.930;2024-03-02T10:06:27;5.50;99.90
44695;DHT22;32845;59.422;17.930;2024-03-02T10:10:58;5.60;99.90
44695;DHT22;32845;59.422;17.930;2024-03-02T10:15:29;5.70;99.90
44695;DHT22;32845;59.422;17.930;2024-03-02T10:19:59;5.70;99.90
44695;DHT22;32845;59.422;17.930;2024-03-02T10:24:53;5.80;99.90
44695;DHT22;32845;59.422;17.930;2024-03-02T10:29:23;5.80;99.90
44695;DHT22;32845;59.422;17.930;2024-03-02T10:34:00;5.80;99.90
44695;DHT22;32845;59.422;17.930;2024-03-02T10:38:30;5.80;99.90
44695;DHT22;32845;59.422;17.930;2024-03-02T10:43:01;5.80;99.90
44695;DHT22;32845;59.422;17.930;2024-03-02T10:47:36;5.90;99.90
44695;DHT22;32845;59.422;17.930;2024-03-02T10:52:07;5.90;99.90
44695;DHT22;32845;59.422;17.930;2024-03-02T10:56:40;5.90;99.90
44695;DHT22;32845;59.422;17.930;2024-03-02T11:01:12;6.00;99.90
44695;DHT22;32845;59.422;17.930;2024-03-02T11:05:46;6.00;99.90
44695;DHT22;32845;59.422;17.930;2024-03-02T11:10:17;6.00;99.90
44695;DHT22;32845;59.422;17.930;2024-03-02T11:14:48;6.10;99.90
44695;DHT22;32845;59.422;17.930;2024-03-02T11:19:22;6.10;99.90
44695;DHT22;32845;59.422;17.930;2024-03-02T11:23:53;6.10;99.90
44695;DHT22;32845;59.422;17.930;2024-03-02T11:28:35;6.10;99.90
44695;DHT22;32845;59.422;17.930;2024-03-02T11:33:07;6.10;99.90
44695;DHT22;32845;59.422;17.930;2024-03-02T11:37:41;6.20;99.90
44695;DHT22;32845;59.422;17.930;2024-03-02T11:42:12;6.20;99.90
44695;DHT22;32845;59.422;17.930;2024-03-02T11:46:58;6.20;99.90
44695;DHT22;32845;59.422;17.930;2024-03-02T11:51:29;6.20;99.90
44695;DHT22;32845;59.422;17.930;2024-03-02T11:56:01;6.30;99.90
44695;DHT22;32845;59.422;17.930;2024-03-02T12:00:32;6.30;99.90
44695;DHT22;32845;59.422;17.930;2024-03-02T12:05:04;6.30;99.90
44695;DHT22;32845;59.422;17.930;2024-03-02T12:09:35;6.30;99.90
44695;DHT22;32845;59.422;17.930;2024-03-02T12:14:11;6.30;99.90
44695;DHT22;32845;59.422;17.930;2024-03-02T12:18:43;6.30;99.90
44695;DHT22;32845;59.422;17.930;2024-03-02T12:23:14;6.30;99.90
44695;DHT22;32845;59.422;17.930;2024-03-02T12:27:45;6.20;99.90
44695;DHT22;32845;59.422;17.930;2024-03-02T12:32:16;6.20;99.90
44695;DHT22;32845;59.422;17.930;2024-03-02T12:36:47;6.20;99.90
44695;DHT22;32845;59.422;17.930;2024-03-02T12:41:20;6.10;99.90
44695;DHT22;32845;59.422;17.930;2024-03-02T12:45:51;6.00;99.90
44695;DHT22;32845;59.422;17.930;2024-03-02T12:50:22;6.00;99.90
44695;DHT22;32845;59.422;17.930;2024-03-02T12:54:52;5.90;99.90
44695;DHT22;32845;59.422;17.930;2024-03-02T12:59:28;5.90;99.90
44695;DHT22;32845;59.422;17.930;2024-03-02T13:03:59;5.90;99.90
44695;DHT22;32845;59.422;17.930;2024-03-02T13:08:29;5.80;99.90
44695;DHT22;32845;59.422;17.930;2024-03-02T13:13:00;5.80;99.90
44695;DHT22;32845;59.422;17.930;2024-03-02T13:17:31;5.70;99.90
44695;DHT22;32845;59.422;17.930;2024-03-02T13:22:04;5.70;99.90
44695;DHT22;32845;59.422;17.930;2024-03-02T13:26:36;5.70;99.90
44695;DHT22;32845;59.422;17.930;2024-03-02T13:31:07;5.60;99.90
44695;DHT22;32845;59.422;17.930;2024-03-02T13:35:37;5.60;99.90
44695;DHT22;32845;59.422;17.930;2024-03-02T13:40:08;5.60;99.90
44695;DHT22;32845;59.422;17.930;2024-03-02T13:44:43;5.60;99.90
44695;DHT22;32845;59.422;17.930;2024-03-02T13:49:17;5.60;99.90
44695;DHT22;32845;59.422;17.930;2024-03-02T13:53:48;5.50;99.90
44695;DHT22;32845;59.422;17.930;2024-03-02T13:58:18;5.50;99.90
44695;DHT22;32845;59.422;17.930;2024-03-02T14:02:51;5.50;99.90
44695;DHT22;32845;59.422;17.930;2024-03-02T14:07:21;5.40;99.90
44695;DHT22;32845;59.422;17.930;2024-03-02T14:11:52;5.40;99.90
44695;DHT22;32845;59.422;17.930;2024-03-02T14:16:23;5.40;99.90
44695;DHT22;32845;59.422;17.930;2024-03-02T14:20:53;5.30;99.90
44695;DHT22;32845;59.422;17.930;2024-03-02T14:25:24;5.40;99.90
44695;DHT22;32845;59.422;17.930;2024-03-02T14:29:54;5.40;99.90
44695;DHT22;32845;59.422;17.930;2024-03-02T14:34:25;5.30;99.90
44695;DHT22;32845;59.422;17.930;2024-03-02T14:38:56;5.40;99.90
44695;DHT22;32845;59.422;17.930;2024-03-02T14:43:26;5.30;99.90
44695;DHT22;32845;59.422;17.930;2024-03-02T14:47:57;5.30;99.90
44695;DHT22;32845;59.422;17.930;2024-03-02T14:52:30;5.30;99.90
44695;DHT22;32845;59.422;17.930;2024-03-02T14:57:00;5.30;99.90
44695;DHT22;32845;59.422;17.930;2024-03-02T15:01:33;5.20;99.90
44695;DHT22;32845;59.422;17.930;2024-03-02T15:06:04;5.20;99.90
44695;DHT22;32845;59.422;17.930;2024-03-02T15:10:34;5.10;99.90
44695;DHT22;32845;59.422;17.930;2024-03-02T15:15:06;5.10;99.90
44695;DHT22;32845;59.422;17.930;2024-03-02T15:19:37;5.10;99.90
44695;DHT22;32845;59.422;17.930;2024-03-02T15:24:08;5.10;99.90
44695;DHT22;32845;59.422;17.930;2024-03-02T15:28:38;5.10;99.90
44695;DHT22;32845;59.422;17.930;2024-03-02T15:33:09;5.10;99.90
44695;DHT22;32845;59.422;17.930;2024-03-02T15:37:40;5.10;99.90
44695;DHT22;32845;59.422;17.930;2024-03-02T15:42:10;5.00;99.90
44695;DHT22;32845;59.422;17.930;2024-03-02T15:46:41;5.00;99.90
44695;DHT22;32845;59.422;17.930;2024-03-02T15:51:12;5.00;99.90
44695;DHT22;32845;59.422;17.930;2024-03-02T15:55:43;5.00;99.90
44695;DHT22;32845;59.422;17.930;2024-03-02T16:00:17;5.00;99.90
44695;DHT22;32845;59.422;17.930;2024-03-02T16:04:48;5.00;99.90
44695;DHT22;32845;59.422;17.930;2024-03-02T16:09:18;5.00;99.90
44695;DHT22;32845;59.422;17.930;2024-03-02T16:13:49;5.00;99.90
44695;DHT22;32845;59.422;17.930;2024-03-02T16:18:20;4.90;99.90
44695;DHT22;32845;59.422;17.930;2024-03-02T16:22:50;4.90;99.90
44695;DHT22;32845;59.422;17.930;2024-03-02T16:27:21;4.90;99.90
44695;DHT22;32845;59.422;17.930;2024-03-02T16:31:52;4.80;99.90
44695;DHT22;32845;59.422;17.930;2024-03-02T16:36:22;4.80;99.90
44695;DHT22;32845;59.422;17.930;2024-03-02T16:40:53;4.80;99.90
44695;DHT22;32845;59.422;17.930;2024-03-02T16:45:23;4.80;99.90
44695;DHT22;32845;59.422;17.930;2024-03-02T16:49:54;4.70;99.90
44695;DHT22;32845;59.422;17.930;2024-03-02T16:54:25;4.70;99.90
44695;DHT22;32845;59.422;17.930;2024-03-02T16:58:55;4.70;99.90
44695;DHT22;32845;59.422;17.930;2024-03-02T17:03:26;4.70;99.90
44695;DHT22;32845;59.422;17.930;2024-03-02T17:07:57;4.70;99.90
44695;DHT22;32845;59.422;17.930;2024-03-02T17:12:28;4.60;99.90
44695;DHT22;32845;59.422;17.930;2024-03-02T17:16:59;4.60;99.90
44695;DHT22;32845;59.422;17.930;2024-03-02T17:21:29;4.60;99.90
44695;DHT22;32845;59.422;17.930;2024-03-02T17:26:01;4.60;99.90
44695;DHT22;32845;59.422;17.930;2024-03-02T17:30:32;4.50;99.90
44695;DHT22;32845;59.422;17.930;2024-03-02T17:35:02;4.50;99.90
44695;DHT22;32845;59.422;17.930;2024-03-02T17:39:33;4.50;99.90
44695;DHT22;32845;59.422;17.930;2024-03-02T17:44:04;4.50;99.90
44695;DHT22;32845;59.422;17.930;2024-03-02T17:48:35;4.50;99.90
44695;DHT22;32845;59.422;17.930;2024-03-02T17:53:05;4.50;99.90
44695;DHT22;32845;59.422;17.930;2024-03-02T17:57:36;4.50;99.90
44695;DHT22;32845;59.422;17.930;2024-03-02T18:02:07;4.50;99.90
44695;DHT22;32845;59.422;17.930;2024-03-02T18:06:38;4.40;99.90
44695;DHT22;32845;59.422;17.930;2024-03-02T18:11:08;4.40;99.90
44695;DHT22;32845;59.422;17.930;2024-03-02T18:15:39;4.40;99.90
44695;DHT22;32845;59.422;17.930;2024-03-02T18:20:10;4.40;99.90
44695;DHT22;32845;59.422;17.930;2024-03-02T18:24:41;4.40;99.90
44695;DHT22;32845;59.422;17.930;2024-03-02T18:29:12;4.40;99.90
44695;DHT22;32845;59.422;17.930;2024-03-02T18:33:43;4.40;99.90
44695;DHT22;32845;59.422;17.930;2024-03-02T18:38:13;4.40;99.90
44695;DHT22;32845;59.422;17.930;2024-03-02T18:42:44;4.40;99.90
44695;DHT22;32845;59.422;17.930;2024-03-02T18:47:15;4.40;99.90
44695;DHT22;32845;59.422;17.930;2024-03-02T18:51:45;4.40;99.90
44695;DHT22;32845;59.422;17.930;2024-03-02T18:56:16;4.30;99.90
44695;DHT22;32845;59.422;17.930;2024-03-02T19:00:47;4.40;99.90
44695;DHT22;32845;59.422;17.930;2024-03-02T19:05:17;4.40;99.90
44695;DHT22;32845;59.422;17.930;2024-03-02T19:09:48;4.40;99.90
44695;DHT22;32845;59.422;17.930;2024-03-02T19:14:19;4.40;99.90
44695;DHT22;32845;59.422;17.930;2024-03-02T19:18:49;4.40;99.90
44695;DHT22;32845;59.422;17.930;2024-03-02T19:23:20;4.40;99.90
44695;DHT22;32845;59.422;17.930;2024-03-02T19:27:50;4.40;99.90
44695;DHT22;32845;59.422;17.930;2024-03-02T19:32:21;4.40;99.90
44695;DHT22;32845;59.422;17.930;2024-03-02T19:36:52;4.40;99.90
44695;DHT22;32845;59.422;17.930;2024-03-02T19:41:25;4.40;99.90
44695;DHT22;32845;59.422;17.930;2024-03-02T19:45:55;4.30;99.90
44695;DHT22;32845;59.422;17.930;2024-03-02T19:50:26;4.30;99.90
44695;DHT22;32845;59.422;17.930;2024-03-02T19:54:56;4.40;99.90
44695;DHT22;32845;59.422;17.930;2024-03-02T19:59:27;4.40;99.90
44695;DHT22;32845;59.422;17.930;2024-03-02T20:03:58;4.40;99.90
44695;DHT22;32845;59.422;17.930;2024-03-02T20:08:28;4.40;99.90
44695;DHT22;32845;59.422;17.930;2024-03-02T20:12:59;4.30;99.90
44695;DHT22;32845;59.422;17.930;2024-03-02T20:17:33;4.40;99.90
44695;DHT22;32845;59.422;17.930;2024-03-02T20:22:04;4.30;99.90
44695;DHT22;32845;59.422;17.930;2024-03-02T20:26:34;4.40;99.90
44695;DHT22;32845;59.422;17.930;2024-03-02T20:31:05;4.40;99.90
44695;DHT22;32845;59.422;17.930;2024-03-02T20:35:36;4.40;99.90
44695;DHT22;32845;59.422;17.930;2024-03-02T20:40:07;4.30;99.90
44695;DHT22;32845;59.422;17.930;2024-03-02T20:44:39;4.30;99.90
44695;DHT22;32845;59.422;17.930;2024-03-02T20:49:10;4.30;99.90
44695;DHT22;32845;59.422;17.930;2024-03-02T20:53:41;4.30;99.90
44695;DHT22;32845;59.422;17.930;2024-03-02T20:58:12;4.30;99.90
44695;DHT22;32845;59.422;17.930;2024-03-02T21:02:44;4.30;99.90
44695;DHT22;32845;59.422;17.930;2024-03-02T21:07:15;4.30;99.90
44695;DHT22;32845;59.422;17.930;2024-03-02T21:11:48;4.30;99.90
44695;DHT22;32845;59.422;17.930;2024-03-02T21:16:19;4.30;99.90
44695;DHT22;32845;59.422;17.930;2024-03-02T21:20:49;4.30;99.90
44695;DHT22;32845;59.422;17.930;2024-03-02T21:25:20;4.30;99.90
44695;DHT22;32845;59.422;17.930;2024-03-02T21:29:51;4.30;99.90
44695;DHT22;32845;59.422;17.930;2024-03-02T21:34:21;4.30;99.90
44695;DHT22;32845;59.422;17.930;2024-03-02T21:38:52;4.30;99.90
44695;DHT22;32845;59.422;17.930;2024-03-02T21:43:23;4.30;99.90
44695;DHT22;32845;59.422;17.930;2024-03-02T21:47:53;4.30;99.90
44695;DHT22;32845;59.422;17.930;2024-03-02T21:52:25;4.30;99.90
44695;DHT22;32845;59.422;17.930;2024-03-02T21:56:55;4.30;99.90
44695;DHT22;32845;59.422;17.930;2024-03-02T22:01:26;4.30;99.90
44695;DHT22;32845;59.422;17.930;2024-03-02T22:05:57;4.30;99.90
44695;DHT22;32845;59.422;17.930;2024-03-02T22:10:28;4.30;99.90
44695;DHT22;32845;59.422;17.930;2024-03-02T22:15:00;4.30;99.90
44695;DHT22;32845;59.422;17.930;2024-03-02T22:19:30;4.30;99.90
44695;DHT22;32845;59.422;17.930;2024-03-02T22:24:01;4.30;99.90
44695;DHT22;32845;59.422;17.930;2024-03-02T22:28:31;4.30;99.90
44695;DHT22;32845;59.422;17.930;2024-03-02T22:33:02;4.30;99.90
44695;DHT22;32845;59.422;17.930;2024-03-02T22:37:33;4.30;99.90
44695;DHT22;32845;59.422;17.930;2024-03-02T22:42:03;4.30;99.90
44695;DHT22;32845;59.422;17.930;2024-03-02T22:46:34;4.30;99.90
44695;DHT22;32845;59.422;17.930;2024-03-02T22:51:05;4.30;99.90
44695;DHT22;32845;59.422;17.930;2024-03-02T22:55:35;4.30;99.90
44695;DHT22;32845;59.422;17.930;2024-03-02T23:00:07;4.30;99.90
44695;DHT22;32845;59.422;17.930;2024-03-02T23:04:58;4.30;99.90
44695;DHT22;32845;59.422;17.930;2024-03-02T23:09:28;4.30;99.90
44695;DHT22;32845;59.422;17.930;2024-03-02T23:13:59;4.30;99.90
44695;DHT22;32845;59.422;17.930;2024-03-02T23:18:30;4.20;99.90
44695;DHT22;32845;59.422;17.930;2024-03-02T23:23:00;4.30;99.90
44695;DHT22;32845;59.422;17.930;2024-03-02T23:27:34;4.20;99.90
44695;DHT22;32845;59.422;17.930;2024-03-02T23:32:08;4.20;99.90
44695;DHT22;32845;59.422;17.930;2024-03-02T23:36:38;4.20;99.90
44695;DHT22;32845;59.422;17.930;2024-03-02T23:41:09;4.30;99.90
44695;DHT22;32845;59.422;17.930;2024-03-02T23:45:40;4.20;99.90
44695;DHT22;32845;59.422;17.930;2024-03-02T23:50:11;4.20;99.90
44695;DHT22;32845;59.422;17.930;2024-03-02T23:54:42;4.20;99.90
44695;DHT22;32845;59.422;17.930;2024-03-02T23:59:12;4.20;99.90
